Houma, LA

5:38 PM CDT on September 02, 2015 (GMT -0500)
Ellendale Farms | | Change Station
CLOSE
Current Station
Personal Weather Station
Location: Houma, LA
Elevation: 26 ft
Nearby Weather Stations

Elev 26 ft 29.63 °N, 90.81 °W | Updated 0 second ago

Partly Cloudy
Partly Cloudy
80.0 °F
Feels Like 85 °F
N
1.9
Wind Variable Wind from SSW
Gusts 2.0 mph

Today
High -- | Low -- °F
--% Chance of Precip.
Yesterday
High -- | Low -- °F
Precip. -- in
6:40 AM 7:24 PM
Waning Gibbous, 76% visible
Pressure 30.04 in
Visibility 10.0 miles
Clouds Clear
Heat Index 85 °F
Dew Point 75 °F
Humidity 85%
Rainfall 0.09 in
Snow Depth Not available.
UV 9 out of 12
Pollen 7.90 out of 12
Air Quality Not available.
Flu Activity Not available.
SPECI K7R3 022027Z 13004KT 10SM SKC 27/23 A3004 RMK DA014
Pressure 30.04 in
Visibility 10.0 miles
Clouds Clear
Heat Index 85 °F
Dew Point 75 °F
Humidity 85%
Rainfall 0.09 in
Snow Depth Not available.
UV 9 out of 12
Pollen 7.90 out of 12
Air Quality Not available.
Flu Activity Not available.
SPECI K7R3 022027Z 13004KT 10SM SKC 27/23 A3004 RMK DA014

10-Day Weather Forecast

×

Almanac

Astronomy

Sep. 02, 2015 Rise Set
Actual Time
Civil Twilight
Nautical Twilight
Astronomical Twilight
Moon
Length of Visible Light
Length of Day
Tomorrow will be .
, % of the Moon is Illuminated

Today's Extremes

State Highs State Lows

Community

WunderPhotos

Upload Photos

1,851,828 photos uploaded!

WunderBlogs® & News

Nearby

Air Quality

  Air Quality AQ Index Pollutant
Not available.

Snow Depth

Station Depth Elevation

Earthquake Activity

City Distance Mag. Time & Date
Minimum magnitude displayed is 2.5.

Coastal Water Temperatures

Place Temperature

Stations

Nearby Weather Stations

Station Location Temp. Windchill Dew Point Humidity Wind Precip. Elev Updated Type